createdAt,value
2018-05-29T00:00:33.251Z,21.90
2018-05-29T00:02:59.472Z,21.80
2018-05-29T00:05:25.701Z,21.80
2018-05-29T00:07:52.204Z,21.80
2018-05-29T00:10:18.509Z,21.70
2018-05-29T00:12:45.498Z,21.70
2018-05-29T00:15:11.696Z,21.60
2018-05-29T00:17:38.716Z,21.50
2018-05-29T00:20:04.973Z,21.50
2018-05-29T00:22:31.937Z,21.40
2018-05-29T00:24:58.293Z,21.40
2018-05-29T00:27:24.513Z,21.40
2018-05-29T00:29:50.738Z,21.30
2018-05-29T00:32:17.057Z,21.30
2018-05-29T00:34:43.291Z,21.30
2018-05-29T00:37:09.537Z,21.30
2018-05-29T00:39:35.903Z,21.30
2018-05-29T00:42:03.165Z,21.20
2018-05-29T00:44:29.458Z,21.20
2018-05-29T00:46:55.672Z,21.10
2018-05-29T00:49:21.961Z,21.20
2018-05-29T00:51:48.426Z,21.10
2018-05-29T00:54:14.788Z,21.10
2018-05-29T00:56:41.135Z,21.10
2018-05-29T00:59:07.369Z,21.10
2018-05-29T01:01:33.637Z,21.00
2018-05-29T01:03:59.839Z,21.00
2018-05-29T01:06:26.908Z,21.00
2018-05-29T01:08:53.104Z,20.90
2018-05-29T01:11:20.076Z,20.70
2018-05-29T01:13:46.283Z,20.70
2018-05-29T01:16:12.509Z,20.70
2018-05-29T01:18:38.719Z,20.70
2018-05-29T01:21:04.996Z,20.60
2018-05-29T01:23:31.240Z,20.50
2018-05-29T01:25:57.460Z,20.50
2018-05-29T01:28:23.730Z,20.50
2018-05-29T01:30:50.873Z,20.40
2018-05-29T01:33:17.090Z,20.40
2018-05-29T01:35:43.865Z,20.40
2018-05-29T01:38:10.184Z,20.40
2018-05-29T01:40:36.413Z,20.30
2018-05-29T01:43:03.340Z,20.20
2018-05-29T01:45:29.550Z,20.20
2018-05-29T01:47:55.797Z,20.20
2018-05-29T01:50:23.020Z,20.20
2018-05-29T01:52:49.224Z,20.20
2018-05-29T01:55:15.446Z,20.20
2018-05-29T01:57:41.718Z,20.20
2018-05-29T02:00:07.940Z,20.20
2018-05-29T02:02:34.433Z,20.00
2018-05-29T02:05:01.465Z,20.20
2018-05-29T02:07:27.680Z,20.20
2018-05-29T02:09:53.904Z,20.10
2018-05-29T02:12:20.979Z,20.10
2018-05-29T02:14:47.201Z,20.10
2018-05-29T02:17:13.747Z,20.10
2018-05-29T02:19:39.964Z,20.00
2018-05-29T02:22:06.187Z,20.00
2018-05-29T02:24:32.580Z,20.00
2018-05-29T02:26:59.665Z,19.90
2018-05-29T02:29:25.907Z,19.90
2018-05-29T02:31:52.255Z,19.90
2018-05-29T02:34:18.542Z,19.90
2018-05-29T02:36:44.782Z,19.90
2018-05-29T02:39:11.097Z,19.90
2018-05-29T02:41:37.337Z,19.70
2018-05-29T02:44:03.631Z,19.80
2018-05-29T02:46:30.605Z,19.70
2018-05-29T02:48:57.653Z,19.70
2018-05-29T02:51:23.914Z,19.70
2018-05-29T02:53:50.188Z,19.70
2018-05-29T02:56:17.332Z,19.60
2018-05-29T02:58:44.301Z,19.50
2018-05-29T03:01:10.580Z,19.50
2018-05-29T03:03:36.805Z,19.60
2018-05-29T03:06:03.122Z,19.50
2018-05-29T03:08:29.568Z,19.50
2018-05-29T03:10:55.813Z,19.40
2018-05-29T03:13:22.048Z,19.40
2018-05-29T03:15:49.040Z,19.40
2018-05-29T03:18:15.644Z,19.40
2018-05-29T03:20:42.669Z,19.30
2018-05-29T03:23:08.970Z,19.30
2018-05-29T03:25:35.175Z,19.30
2018-05-29T03:28:01.642Z,19.30
2018-05-29T03:30:27.981Z,19.30
2018-05-29T03:32:54.453Z,19.40
2018-05-29T03:35:20.905Z,19.40
2018-05-29T03:37:47.116Z,19.40
2018-05-29T03:40:14.105Z,19.30
2018-05-29T03:42:40.327Z,19.30
2018-05-29T03:45:06.503Z,19.40
2018-05-29T03:47:33.532Z,19.40
2018-05-29T03:49:59.786Z,19.40
2018-05-29T03:52:26.036Z,19.30
2018-05-29T03:54:52.324Z,19.40
2018-05-29T03:57:20.932Z,19.40
2018-05-29T03:59:49.141Z,19.40
2018-05-29T04:02:15.456Z,19.40
2018-05-29T04:04:41.844Z,19.40
2018-05-29T04:07:08.145Z,19.50
2018-05-29T04:09:34.419Z,19.40
2018-05-29T04:12:00.697Z,19.50
2018-05-29T04:14:26.937Z,19.50
2018-05-29T04:16:53.132Z,19.50
2018-05-29T04:19:19.558Z,19.60
2018-05-29T04:21:45.776Z,19.60
2018-05-29T04:24:12.023Z,19.60
2018-05-29T04:26:39.582Z,19.60
2018-05-29T04:29:06.161Z,19.70
2018-05-29T04:31:32.433Z,19.70
2018-05-29T04:33:58.675Z,19.70
2018-05-29T04:36:24.871Z,19.80
2018-05-29T04:38:51.131Z,19.80
2018-05-29T04:41:17.724Z,19.90
2018-05-29T04:43:44.111Z,20.00
2018-05-29T04:46:11.132Z,20.00
2018-05-29T04:48:37.426Z,20.00
2018-05-29T04:51:04.434Z,20.30
2018-05-29T04:53:30.679Z,20.30
2018-05-29T04:55:56.941Z,20.50
2018-05-29T04:58:23.944Z,20.90
2018-05-29T05:00:50.174Z,20.80
2018-05-29T05:03:16.410Z,20.90
2018-05-29T05:05:42.646Z,20.90
2018-05-29T05:08:08.974Z,21.00
2018-05-29T05:10:35.337Z,21.00
2018-05-29T05:13:01.613Z,21.00
2018-05-29T05:15:27.890Z,21.30
2018-05-29T05:17:54.279Z,21.50
2018-05-29T05:20:20.793Z,21.70
2018-05-29T05:22:47.134Z,21.60
2018-05-29T05:25:13.584Z,21.50
2018-05-29T05:27:39.772Z,21.50
2018-05-29T05:30:06.138Z,21.70
2018-05-29T05:32:32.435Z,21.80
2018-05-29T05:34:59.393Z,22.10
2018-05-29T05:37:25.627Z,22.00
2018-05-29T05:39:51.834Z,22.20
2018-05-29T05:42:18.062Z,22.30
2018-05-29T05:44:44.289Z,22.40
2018-05-29T05:47:10.551Z,22.40
2018-05-29T05:49:36.798Z,22.50
2018-05-29T05:52:03.364Z,22.60
2018-05-29T05:54:29.740Z,22.70
2018-05-29T05:56:55.974Z,22.80
2018-05-29T05:59:22.172Z,22.80
2018-05-29T06:01:48.421Z,23.00
2018-05-29T06:04:14.647Z,23.00
2018-05-29T06:06:40.956Z,23.00
2018-05-29T06:09:07.184Z,23.20
2018-05-29T06:11:33.500Z,23.30
2018-05-29T06:13:59.803Z,23.40
2018-05-29T06:16:26.781Z,23.50
2018-05-29T06:18:53.720Z,23.60
2018-05-29T06:21:19.952Z,23.60
2018-05-29T06:23:46.532Z,23.70
2018-05-29T06:26:13.006Z,23.80
2018-05-29T06:28:39.348Z,24.00
2018-05-29T06:31:05.548Z,24.20
2018-05-29T06:33:32.524Z,24.70
2018-05-29T06:35:58.838Z,24.70
2018-05-29T06:38:25.061Z,25.10
2018-05-29T06:40:51.327Z,25.20
2018-05-29T06:43:17.552Z,25.80
2018-05-29T06:45:43.793Z,26.10
2018-05-29T06:48:10.008Z,26.50
2018-05-29T06:50:36.216Z,27.20
2018-05-29T06:53:02.431Z,28.00
2018-05-29T06:55:28.635Z,28.80
2018-05-29T06:57:54.881Z,29.00
2018-05-29T07:00:21.868Z,30.40
2018-05-29T07:02:48.108Z,30.30
2018-05-29T07:05:14.452Z,30.90
2018-05-29T07:07:43.635Z,31.20
2018-05-29T07:10:09.926Z,31.50
2018-05-29T07:12:36.172Z,32.20
2018-05-29T07:15:02.405Z,32.40
2018-05-29T07:17:28.631Z,32.30
2018-05-29T07:19:54.883Z,32.00
2018-05-29T07:22:21.281Z,32.60
2018-05-29T07:24:47.635Z,33.20
2018-05-29T07:27:13.896Z,34.20
2018-05-29T07:29:40.101Z,34.30
2018-05-29T07:32:06.317Z,34.40
2018-05-29T07:34:32.577Z,34.30
2018-05-29T07:36:58.769Z,35.40
2018-05-29T07:39:25.985Z,34.90
2018-05-29T07:41:52.571Z,34.80
2018-05-29T07:44:19.749Z,35.20
2018-05-29T07:46:46.769Z,35.40
2018-05-29T07:49:12.986Z,35.40
2018-05-29T07:51:39.250Z,36.70
2018-05-29T07:54:06.321Z,36.80
2018-05-29T07:56:32.651Z,36.80
2018-05-29T07:58:58.922Z,37.50
2018-05-29T08:01:25.268Z,37.10
2018-05-29T08:03:51.691Z,37.70
2018-05-29T08:06:17.964Z,38.10
2018-05-29T08:08:44.202Z,38.10
2018-05-29T08:11:10.420Z,37.90
2018-05-29T08:13:37.437Z,37.40
2018-05-29T08:16:03.798Z,37.40
2018-05-29T08:18:30.172Z,37.60
2018-05-29T08:20:57.324Z,37.40
2018-05-29T08:23:23.784Z,37.30
2018-05-29T08:25:50.001Z,37.30
2018-05-29T08:28:16.264Z,37.80
2018-05-29T08:30:43.320Z,37.20
2018-05-29T08:33:09.624Z,37.20
2018-05-29T08:35:36.593Z,36.80
2018-05-29T08:38:02.842Z,36.80
2018-05-29T08:40:29.153Z,37.00
2018-05-29T08:42:55.367Z,37.80
2018-05-29T08:45:22.372Z,38.60
2018-05-29T08:47:48.599Z,38.60
2018-05-29T08:50:14.829Z,38.30
2018-05-29T08:52:41.041Z,38.10
2018-05-29T08:55:07.288Z,38.90
2018-05-29T08:57:33.607Z,38.30
2018-05-29T09:00:00.360Z,38.20
2018-05-29T09:02:26.606Z,38.40
2018-05-29T09:04:53.538Z,39.70
2018-05-29T09:07:19.784Z,39.60
2018-05-29T09:09:46.045Z,39.20
2018-05-29T09:12:12.270Z,38.60
2018-05-29T09:14:38.496Z,38.70
2018-05-29T09:17:05.552Z,38.00
2018-05-29T09:19:31.799Z,38.90
2018-05-29T09:21:58.021Z,39.30
2018-05-29T09:24:24.292Z,39.10
2018-05-29T09:26:50.565Z,39.40
2018-05-29T09:29:16.789Z,38.60
2018-05-29T09:31:43.033Z,38.30
2018-05-29T09:34:09.340Z,38.90
2018-05-29T09:36:35.552Z,38.70
2018-05-29T09:39:01.842Z,39.00
2018-05-29T09:41:28.159Z,39.00
2018-05-29T09:43:55.117Z,39.80
2018-05-29T09:46:21.354Z,39.80
2018-05-29T09:48:47.594Z,39.40
2018-05-29T09:51:13.828Z,39.00
2018-05-29T09:53:40.097Z,38.90
2018-05-29T09:56:06.336Z,38.70
2018-05-29T09:58:32.562Z,38.30
2018-05-29T10:00:58.773Z,38.00
2018-05-29T10:03:25.004Z,38.20
2018-05-29T10:05:51.248Z,38.30
2018-05-29T10:08:17.491Z,39.10
2018-05-29T10:10:43.728Z,39.60
2018-05-29T10:13:09.967Z,39.90
2018-05-29T10:15:36.944Z,39.40
2018-05-29T10:18:03.200Z,39.30
2018-05-29T10:20:29.385Z,39.10
2018-05-29T10:22:56.363Z,38.80
2018-05-29T10:25:23.192Z,38.70
2018-05-29T10:27:49.469Z,38.20
2018-05-29T10:30:23.500Z,38.00
2018-05-29T10:32:50.611Z,37.60
2018-05-29T10:35:16.905Z,37.60
2018-05-29T10:37:43.121Z,37.30
2018-05-29T10:40:09.347Z,37.30
2018-05-29T10:42:35.553Z,37.20
2018-05-29T10:45:01.798Z,37.50
2018-05-29T10:47:28.767Z,37.40
2018-05-29T10:49:55.215Z,37.30
2018-05-29T10:52:22.415Z,36.10
2018-05-29T10:54:49.384Z,36.20
2018-05-29T10:57:15.596Z,36.20
2018-05-29T10:59:42.581Z,35.70
2018-05-29T11:02:08.808Z,35.70
2018-05-29T11:04:35.027Z,35.50
2018-05-29T11:07:01.313Z,35.00
2018-05-29T11:09:27.553Z,35.70
2018-05-29T11:11:54.575Z,35.50
2018-05-29T11:14:20.839Z,35.50
2018-05-29T11:16:47.023Z,35.70
2018-05-29T11:19:13.264Z,35.70
2018-05-29T11:21:39.519Z,35.30
2018-05-29T11:24:05.780Z,34.90
2018-05-29T11:26:32.125Z,34.10
2018-05-29T11:28:58.362Z,34.30
2018-05-29T11:31:25.364Z,35.10
2018-05-29T11:33:51.577Z,35.10
2018-05-29T11:36:18.573Z,34.70
2018-05-29T11:38:44.879Z,34.70
2018-05-29T11:41:11.093Z,34.40
2018-05-29T11:43:37.340Z,34.60
2018-05-29T11:46:03.568Z,34.10
2018-05-29T11:48:29.957Z,34.20
2018-05-29T11:50:56.186Z,34.00
2018-05-29T11:53:23.464Z,34.00
2018-05-29T11:55:49.776Z,34.00
2018-05-29T11:58:16.085Z,33.90
2018-05-29T12:00:43.036Z,33.20
2018-05-29T12:03:09.986Z,33.20
2018-05-29T12:05:37.044Z,33.40
2018-05-29T12:08:03.364Z,33.30
2018-05-29T12:10:29.702Z,33.30
2018-05-29T12:12:55.936Z,33.10
2018-05-29T12:15:22.171Z,33.80
2018-05-29T12:17:48.414Z,34.30
2018-05-29T12:20:14.644Z,34.40
2018-05-29T12:22:40.867Z,34.40
2018-05-29T12:25:07.205Z,33.80
2018-05-29T12:27:34.174Z,34.40
2018-05-29T12:30:00.382Z,34.50
2018-05-29T12:32:26.600Z,34.40
2018-05-29T12:34:52.839Z,34.50
2018-05-29T12:37:19.128Z,34.40
2018-05-29T12:39:45.355Z,33.80
2018-05-29T12:42:11.622Z,33.30
2018-05-29T12:44:37.876Z,33.30
2018-05-29T12:47:04.097Z,33.80
2018-05-29T12:49:30.298Z,33.40
2018-05-29T12:51:56.505Z,33.70
2018-05-29T12:54:22.747Z,33.70
2018-05-29T12:56:49.057Z,33.80
2018-05-29T12:59:15.345Z,33.60
2018-05-29T13:01:42.436Z,33.40
2018-05-29T13:04:08.665Z,33.30
2018-05-29T13:06:34.878Z,33.00
2018-05-29T13:09:01.846Z,32.90
2018-05-29T13:11:28.069Z,32.80
2018-05-29T13:13:54.307Z,33.10
2018-05-29T13:16:20.581Z,32.80
2018-05-29T13:18:46.806Z,32.90
2018-05-29T13:21:13.143Z,32.50
2018-05-29T13:23:39.398Z,32.60
2018-05-29T13:26:05.628Z,32.50
2018-05-29T13:28:32.603Z,31.70
2018-05-29T13:30:58.848Z,31.60
2018-05-29T13:33:25.056Z,31.90
2018-05-29T13:35:51.291Z,31.80
2018-05-29T13:38:17.547Z,31.70
2018-05-29T13:40:43.783Z,31.70
2018-05-29T13:43:10.020Z,31.80
2018-05-29T13:45:36.989Z,31.30
2018-05-29T13:48:03.216Z,31.20
2018-05-29T13:50:30.058Z,31.50
2018-05-29T13:52:56.818Z,31.30
2018-05-29T13:55:23.100Z,31.20
2018-05-29T13:57:50.148Z,31.20
2018-05-29T14:00:17.090Z,30.70
2018-05-29T14:02:44.065Z,30.70
2018-05-29T14:05:10.342Z,30.70
2018-05-29T14:07:36.958Z,30.90
2018-05-29T14:10:03.238Z,30.50
2018-05-29T14:12:30.185Z,30.50
2018-05-29T14:14:57.298Z,30.30
2018-05-29T14:17:23.577Z,30.20
2018-05-29T14:19:49.833Z,30.50
2018-05-29T14:22:16.252Z,30.10
2018-05-29T14:24:43.299Z,29.70
2018-05-29T14:27:09.597Z,29.60
2018-05-29T14:29:36.560Z,28.60
2018-05-29T14:32:02.781Z,28.50
2018-05-29T14:34:29.753Z,28.40
2018-05-29T14:36:56.177Z,28.40
2018-05-29T14:39:22.416Z,28.00
2018-05-29T14:41:48.675Z,28.20
2018-05-29T14:44:16.341Z,28.20
2018-05-29T14:46:42.565Z,28.20
2018-05-29T14:49:08.804Z,28.20
2018-05-29T14:51:35.044Z,27.80
2018-05-29T14:54:01.244Z,27.60
2018-05-29T14:56:27.448Z,27.60
2018-05-29T14:58:53.677Z,27.40
2018-05-29T15:01:19.876Z,27.20
2018-05-29T15:03:46.113Z,27.00
2018-05-29T15:06:12.513Z,26.70
2018-05-29T15:08:38.820Z,26.20
2018-05-29T15:11:05.061Z,26.00
2018-05-29T15:13:31.652Z,26.20
2018-05-29T15:15:57.876Z,26.10
2018-05-29T15:18:24.107Z,25.80
2018-05-29T15:20:50.309Z,25.40
2018-05-29T15:23:16.546Z,24.60
2018-05-29T15:25:42.800Z,23.30
2018-05-29T15:28:09.042Z,23.00
2018-05-29T15:30:35.874Z,22.80
2018-05-29T15:33:02.115Z,22.30
2018-05-29T15:35:28.344Z,22.10
2018-05-29T15:37:54.566Z,21.90
2018-05-29T15:40:20.799Z,21.60
2018-05-29T15:42:47.021Z,21.70
2018-05-29T15:45:13.251Z,21.20
2018-05-29T15:47:39.486Z,20.70
2018-05-29T15:50:05.707Z,20.00
2018-05-29T15:52:31.949Z,19.50
2018-05-29T15:54:58.193Z,19.50
2018-05-29T15:57:24.491Z,19.50
2018-05-29T15:59:50.739Z,18.90
2018-05-29T16:02:16.938Z,18.80
2018-05-29T16:04:43.160Z,18.90
2018-05-29T16:07:09.370Z,18.90
2018-05-29T16:09:35.727Z,18.80
2018-05-29T16:12:02.002Z,18.60
2018-05-29T16:14:29.996Z,18.80
2018-05-29T16:16:56.233Z,18.80
2018-05-29T16:19:22.461Z,18.90
2018-05-29T16:21:48.683Z,18.90
2018-05-29T16:24:14.916Z,19.10
2018-05-29T16:26:42.005Z,19.30
2018-05-29T16:29:08.257Z,19.30
2018-05-29T16:31:34.524Z,19.30
2018-05-29T16:34:00.764Z,19.00
2018-05-29T16:36:26.982Z,19.10
2018-05-29T16:38:53.243Z,19.20
2018-05-29T16:41:19.449Z,19.10
2018-05-29T16:43:45.720Z,19.20
2018-05-29T16:46:11.965Z,19.20
2018-05-29T16:48:38.191Z,19.10
2018-05-29T16:51:04.442Z,19.00
2018-05-29T16:53:30.705Z,19.20
2018-05-29T16:55:56.962Z,19.40
2018-05-29T16:58:23.312Z,19.60
2018-05-29T17:00:50.797Z,19.70
2018-05-29T17:03:17.101Z,19.80
2018-05-29T17:05:43.312Z,19.90
2018-05-29T17:08:09.565Z,20.00
2018-05-29T17:10:36.105Z,20.00
2018-05-29T17:13:02.365Z,20.10
2018-05-29T17:15:28.651Z,20.20
2018-05-29T17:17:55.607Z,20.40
2018-05-29T17:20:21.855Z,20.40
2018-05-29T17:22:48.056Z,20.50
2018-05-29T17:25:14.288Z,20.50
2018-05-29T17:27:40.527Z,20.50
2018-05-29T17:30:06.804Z,20.60
2018-05-29T17:32:33.796Z,20.70
2018-05-29T17:35:00.115Z,20.60
2018-05-29T17:37:26.396Z,20.80
2018-05-29T17:39:53.788Z,20.80
2018-05-29T17:42:20.036Z,20.80
2018-05-29T17:44:46.248Z,20.90
2018-05-29T17:47:13.022Z,20.90
2018-05-29T17:49:40.278Z,21.00
2018-05-29T17:52:07.502Z,20.90
2018-05-29T17:54:34.067Z,20.90
2018-05-29T17:57:00.718Z,21.00
2018-05-29T17:59:26.980Z,21.10
2018-05-29T18:01:53.220Z,21.10
2018-05-29T18:04:19.694Z,21.10
2018-05-29T18:06:45.969Z,21.10
2018-05-29T18:09:12.948Z,21.20
2018-05-29T18:11:39.183Z,21.20
2018-05-29T18:14:05.497Z,21.10
2018-05-29T18:16:32.605Z,21.20
2018-05-29T18:18:58.852Z,21.20
2018-05-29T18:21:25.131Z,21.30
2018-05-29T18:23:51.552Z,21.20
2018-05-29T18:26:17.800Z,21.20
2018-05-29T18:28:44.277Z,21.10
2018-05-29T18:31:10.624Z,21.10
2018-05-29T18:33:37.035Z,21.20
2018-05-29T18:36:03.388Z,21.20
2018-05-29T18:38:29.657Z,21.10
2018-05-29T18:40:55.891Z,21.20
2018-05-29T18:43:22.183Z,21.20
2018-05-29T18:45:48.430Z,21.20
2018-05-29T18:48:14.673Z,21.10
2018-05-29T18:50:41.713Z,21.20
2018-05-29T18:53:08.826Z,21.20
2018-05-29T18:55:35.110Z,21.20
2018-05-29T18:58:01.374Z,21.20
2018-05-29T19:00:28.933Z,21.30
2018-05-29T19:02:55.195Z,21.20
2018-05-29T19:05:21.422Z,21.20
2018-05-29T19:07:47.689Z,21.20
2018-05-29T19:10:14.738Z,21.20
2018-05-29T19:12:41.070Z,21.20
2018-05-29T19:15:07.324Z,21.20
2018-05-29T19:17:33.568Z,21.10
2018-05-29T19:19:59.770Z,21.10
2018-05-29T19:22:25.976Z,21.20
2018-05-29T19:24:52.227Z,21.20
2018-05-29T19:27:18.441Z,21.20
2018-05-29T19:29:44.716Z,21.20
2018-05-29T19:32:11.073Z,21.20
2018-05-29T19:34:37.325Z,21.20
2018-05-29T19:37:04.289Z,21.10
2018-05-29T19:39:30.589Z,21.10
2018-05-29T19:41:57.601Z,21.10
2018-05-29T19:44:23.865Z,21.10
2018-05-29T19:46:50.884Z,21.00
2018-05-29T19:49:17.212Z,21.00
2018-05-29T19:51:43.444Z,21.00
2018-05-29T19:54:09.720Z,21.00
2018-05-29T19:56:35.982Z,20.90
2018-05-29T19:59:02.288Z,20.90
2018-05-29T20:01:28.533Z,21.00
2018-05-29T20:03:54.843Z,20.90
2018-05-29T20:06:21.101Z,20.90
2018-05-29T20:08:47.330Z,21.00
2018-05-29T20:11:13.565Z,20.80
2018-05-29T20:13:39.801Z,20.80
2018-05-29T20:16:06.062Z,20.90
2018-05-29T20:18:32.300Z,20.90
2018-05-29T20:20:58.813Z,20.90
2018-05-29T20:23:25.764Z,20.80
2018-05-29T20:25:52.802Z,20.80
2018-05-29T20:28:19.759Z,20.80
2018-05-29T20:30:46.753Z,20.70
2018-05-29T20:33:12.964Z,20.70
2018-05-29T20:35:39.195Z,20.70
2018-05-29T20:38:05.456Z,20.70
2018-05-29T20:40:31.712Z,20.70
2018-05-29T20:42:58.175Z,20.60
2018-05-29T20:45:24.518Z,20.60
2018-05-29T20:47:50.872Z,20.60
2018-05-29T20:50:17.089Z,20.60
2018-05-29T20:52:43.325Z,20.60
2018-05-29T20:55:10.329Z,20.50
2018-05-29T20:57:36.559Z,20.50
2018-05-29T21:00:02.812Z,20.50
2018-05-29T21:02:29.086Z,20.50
2018-05-29T21:04:55.317Z,20.40
2018-05-29T21:07:23.425Z,20.40
2018-05-29T21:09:49.659Z,20.40
2018-05-29T21:12:15.896Z,20.40
2018-05-29T21:14:42.315Z,20.40
2018-05-29T21:17:08.524Z,20.40
2018-05-29T21:19:34.806Z,20.40
2018-05-29T21:22:01.846Z,20.40
2018-05-29T21:24:29.572Z,20.30
2018-05-29T21:26:55.823Z,20.40
2018-05-29T21:29:22.073Z,20.30
2018-05-29T21:31:48.305Z,20.40
2018-05-29T21:34:14.533Z,20.30
2018-05-29T21:36:40.750Z,20.30
2018-05-29T21:39:07.074Z,20.30
2018-05-29T21:41:33.329Z,20.30
2018-05-29T21:44:00.337Z,20.30
2018-05-29T21:46:26.544Z,20.30
2018-05-29T21:48:52.784Z,20.30
2018-05-29T21:51:18.985Z,20.20
2018-05-29T21:53:45.233Z,20.10
2018-05-29T21:56:11.512Z,20.00
2018-05-29T21:58:37.741Z,19.90
2018-05-29T22:01:04.764Z,20.10
2018-05-29T22:03:31.040Z,20.00
2018-05-29T22:05:57.291Z,20.10
2018-05-29T22:08:23.513Z,20.10
2018-05-29T22:10:49.732Z,20.10
2018-05-29T22:13:15.951Z,20.10
2018-05-29T22:15:42.227Z,20.10
2018-05-29T22:18:08.477Z,20.10
2018-05-29T22:20:34.700Z,20.10
2018-05-29T22:23:00.932Z,20.00
2018-05-29T22:25:27.137Z,20.00
2018-05-29T22:27:53.401Z,20.00
2018-05-29T22:30:20.386Z,20.00
2018-05-29T22:32:46.703Z,20.00
2018-05-29T22:35:12.944Z,20.00
2018-05-29T22:37:39.187Z,20.00
2018-05-29T22:40:05.404Z,20.00
2018-05-29T22:42:31.636Z,19.80
2018-05-29T22:44:57.868Z,19.80
2018-05-29T22:47:24.108Z,19.70
2018-05-29T22:49:50.391Z,19.60
2018-05-29T22:52:17.371Z,19.60
2018-05-29T22:54:43.823Z,19.60
2018-05-29T22:57:10.039Z,19.60
2018-05-29T22:59:36.284Z,19.60
2018-05-29T23:02:02.565Z,19.60
2018-05-29T23:04:28.913Z,19.70
2018-05-29T23:06:55.134Z,19.70
2018-05-29T23:09:21.381Z,19.60
2018-05-29T23:11:47.605Z,19.50
2018-05-29T23:14:13.852Z,19.40
2018-05-29T23:16:40.108Z,19.60
2018-05-29T23:19:07.089Z,19.70
2018-05-29T23:21:33.313Z,19.60
2018-05-29T23:23:59.544Z,19.70
2018-05-29T23:26:25.934Z,19.70
2018-05-29T23:28:52.401Z,19.70
2018-05-29T23:31:18.665Z,19.70
2018-05-29T23:33:44.914Z,19.70
2018-05-29T23:36:11.125Z,19.70
2018-05-29T23:38:37.353Z,19.60
2018-05-29T23:41:03.579Z,19.60
2018-05-29T23:43:29.825Z,19.60
2018-05-29T23:45:56.884Z,19.30
2018-05-29T23:48:23.892Z,19.20
2018-05-29T23:50:51.676Z,19.10
2018-05-29T23:53:17.915Z,19.00
2018-05-29T23:55:44.888Z,18.90
2018-05-29T23:58:11.096Z,18.80
